createdAt,value
2019-03-05T00:00:36.054Z,49.66
2019-03-05T00:03:05.719Z,49.88
2019-03-05T00:05:35.563Z,48.96
2019-03-05T00:08:05.160Z,49.10
2019-03-05T00:10:34.915Z,49.63
2019-03-05T00:13:04.598Z,48.79
2019-03-05T00:15:34.327Z,48.73
2019-03-05T00:18:04.143Z,49.21
2019-03-05T00:20:35.225Z,49.27
2019-03-05T00:23:04.976Z,49.62
2019-03-05T00:25:34.594Z,49.40
2019-03-05T00:28:11.196Z,49.52
2019-03-05T00:30:46.891Z,49.55
2019-03-05T00:33:49.022Z,49.55
2019-03-05T00:36:35.100Z,50.35
2019-03-05T00:39:54.212Z,50.29
2019-03-05T00:43:12.836Z,50.06
2019-03-05T00:45:58.318Z,49.90
2019-03-05T00:48:50.778Z,50.84
2019-03-05T00:51:47.014Z,49.83
2019-03-05T00:54:40.583Z,50.26
2019-03-05T00:57:22.073Z,50.86
2019-03-05T01:00:15.814Z,50.76
2019-03-05T01:03:45.544Z,51.89
2019-03-05T01:06:25.450Z,51.98
2019-03-05T01:08:56.508Z,51.34
2019-03-05T01:11:26.323Z,51.26
2019-03-05T01:13:56.121Z,51.35
2019-03-05T01:16:30.322Z,51.35
2019-03-05T01:19:00.016Z,52.20
2019-03-05T01:21:29.648Z,51.89
2019-03-05T01:23:59.278Z,51.41
2019-03-05T01:26:28.899Z,51.41
2019-03-05T01:28:58.580Z,52.24
2019-03-05T01:31:53.053Z,52.26
2019-03-05T01:34:40.454Z,51.01
2019-03-05T01:37:10.408Z,51.06
2019-03-05T01:39:49.181Z,50.83
2019-03-05T01:42:19.044Z,51.31
2019-03-05T01:44:48.635Z,50.67
2019-03-05T01:47:18.290Z,50.71
2019-03-05T01:49:47.976Z,51.29
2019-03-05T01:52:17.755Z,51.47
2019-03-05T01:54:47.531Z,50.83
2019-03-05T01:57:17.050Z,50.60
2019-03-05T01:59:46.660Z,50.83
2019-03-05T02:02:16.279Z,50.94
2019-03-05T02:04:46.023Z,51.19
2019-03-05T02:07:15.910Z,51.27
2019-03-05T02:09:45.672Z,51.39
2019-03-05T02:12:15.523Z,51.76
2019-03-05T02:14:45.123Z,51.67
2019-03-05T02:17:14.756Z,51.50
2019-03-05T02:19:52.419Z,51.73
2019-03-05T02:22:36.941Z,51.27
2019-03-05T02:25:29.068Z,51.95
2019-03-05T02:28:10.403Z,52.03
2019-03-05T02:31:11.092Z,51.44
2019-03-05T02:34:08.485Z,52.33
2019-03-05T02:37:18.465Z,51.63
2019-03-05T02:40:09.461Z,52.12
2019-03-05T02:43:10.063Z,51.25
2019-03-05T02:46:01.813Z,51.86
2019-03-05T02:49:30.375Z,51.59
2019-03-05T02:52:43.309Z,52.14
2019-03-05T02:55:42.969Z,51.19
2019-03-05T02:58:10.651Z,51.69
2019-03-05T03:01:02.125Z,51.77
2019-03-05T03:03:35.783Z,52.62
2019-03-05T03:06:12.071Z,51.92
2019-03-05T03:08:41.549Z,52.76
2019-03-05T03:11:11.247Z,52.25
2019-03-05T03:13:40.912Z,51.75
2019-03-05T03:16:10.915Z,53.00
2019-03-05T03:18:40.452Z,51.62
2019-03-05T03:21:10.097Z,51.91
2019-03-05T03:23:39.755Z,52.05
2019-03-05T03:26:09.425Z,52.96
2019-03-05T03:28:39.027Z,52.48
2019-03-05T03:31:08.718Z,52.90
2019-03-05T03:33:38.390Z,52.73
2019-03-05T03:36:08.039Z,52.52
2019-03-05T03:38:37.674Z,53.38
2019-03-05T03:41:07.441Z,52.46
2019-03-05T03:43:36.983Z,52.41
2019-03-05T03:46:06.743Z,52.66
2019-03-05T03:48:36.340Z,52.45
2019-03-05T03:51:06.262Z,52.02
2019-03-05T03:53:36.097Z,52.35
2019-03-05T03:56:05.859Z,52.96
2019-03-05T03:58:35.793Z,52.60
2019-03-05T04:01:07.153Z,53.21
2019-03-05T04:03:37.243Z,52.76
2019-03-05T04:06:06.891Z,53.69
2019-03-05T04:08:36.555Z,53.20
2019-03-05T04:11:06.338Z,52.70
2019-03-05T04:13:35.941Z,52.87
2019-03-05T04:16:05.729Z,52.74
2019-03-05T04:18:35.351Z,52.55
2019-03-05T04:21:06.122Z,52.94
2019-03-05T04:23:35.696Z,53.41
2019-03-05T04:26:05.356Z,53.94
2019-03-05T04:28:35.135Z,54.40
2019-03-05T04:31:04.856Z,54.31
2019-03-05T04:33:34.444Z,54.71
2019-03-05T04:36:04.365Z,54.71
2019-03-05T04:38:34.094Z,54.66
2019-03-05T04:41:03.904Z,54.45
2019-03-05T04:43:33.550Z,54.31
2019-03-05T04:46:22.182Z,54.12
2019-03-05T04:49:10.693Z,54.12
2019-03-05T04:51:46.988Z,53.75
2019-03-05T04:54:16.760Z,53.90
2019-03-05T04:56:46.491Z,54.50
2019-03-05T04:59:16.172Z,54.62
2019-03-05T05:01:45.716Z,54.95
2019-03-05T05:04:15.281Z,55.24
2019-03-05T05:06:44.865Z,55.24
2019-03-05T05:09:14.467Z,54.99
2019-03-05T05:11:44.026Z,54.69
2019-03-05T05:14:13.749Z,54.62
2019-03-05T05:16:43.539Z,54.48
2019-03-05T05:19:13.179Z,54.45
2019-03-05T05:21:42.900Z,54.11
2019-03-05T05:24:12.463Z,54.48
2019-03-05T05:26:42.105Z,54.40
2019-03-05T05:29:11.714Z,54.19
2019-03-05T05:31:41.143Z,53.76
2019-03-05T05:34:10.864Z,53.71
2019-03-05T05:36:40.508Z,53.55
2019-03-05T05:39:46.941Z,52.84
2019-03-05T05:42:16.557Z,52.48
2019-03-05T05:44:46.151Z,52.05
2019-03-05T05:47:15.842Z,52.18
2019-03-05T05:49:45.498Z,51.57
2019-03-05T05:52:15.186Z,51.52
2019-03-05T05:54:44.900Z,51.52
2019-03-05T05:57:14.578Z,51.03
2019-03-05T05:59:44.307Z,50.79
2019-03-05T06:02:14.096Z,50.79
2019-03-05T06:04:43.727Z,50.38
2019-03-05T06:07:13.498Z,50.39
2019-03-05T06:09:43.128Z,49.69
2019-03-05T06:12:12.638Z,49.60
2019-03-05T06:14:43.342Z,50.22
2019-03-05T06:17:13.073Z,50.22
2019-03-05T06:19:42.806Z,50.12
2019-03-05T06:22:13.944Z,49.19
2019-03-05T06:24:43.774Z,48.45
2019-03-05T06:27:13.467Z,46.74
2019-03-05T06:29:43.080Z,45.84
2019-03-05T06:32:12.669Z,43.50
2019-03-05T06:34:44.014Z,41.96
2019-03-05T06:37:13.649Z,40.63
2019-03-05T06:39:43.380Z,38.20
2019-03-05T06:42:13.091Z,36.97
2019-03-05T06:44:42.870Z,33.81
2019-03-05T06:47:14.106Z,31.05
2019-03-05T06:49:43.768Z,30.57
2019-03-05T06:52:14.920Z,28.00
2019-03-05T06:54:45.632Z,25.69
2019-03-05T06:57:17.569Z,23.56
2019-03-05T06:59:47.101Z,22.19
2019-03-05T07:02:18.662Z,20.01
2019-03-05T07:04:59.098Z,19.59
2019-03-05T07:07:34.554Z,19.30
2019-03-05T07:10:30.141Z,19.09
2019-03-05T07:13:18.105Z,18.27
2019-03-05T07:16:11.488Z,17.81
2019-03-05T07:19:01.807Z,18.23
2019-03-05T07:22:06.952Z,16.78
2019-03-05T07:24:50.589Z,16.25
2019-03-05T07:27:31.307Z,15.85
2019-03-05T07:30:05.565Z,14.58
2019-03-05T07:32:37.574Z,13.88
2019-03-05T07:35:11.048Z,13.29
2019-03-05T07:37:40.608Z,13.23
2019-03-05T07:40:11.130Z,13.88
2019-03-05T07:42:40.836Z,13.38
2019-03-05T07:45:10.884Z,12.63
2019-03-05T07:47:40.554Z,12.18
2019-03-05T07:50:10.441Z,11.80
2019-03-05T07:52:40.194Z,11.60
2019-03-05T07:55:17.499Z,12.07
2019-03-05T07:57:48.683Z,10.70
2019-03-05T08:00:20.910Z,10.90
2019-03-05T08:02:50.697Z,11.57
2019-03-05T08:05:20.197Z,11.25
2019-03-05T08:07:52.914Z,10.32
2019-03-05T08:10:28.139Z,10.30
2019-03-05T08:13:30.328Z,10.44
2019-03-05T08:16:25.201Z,10.30
2019-03-05T08:18:54.748Z,10.52
2019-03-05T08:21:24.392Z,10.50
2019-03-05T08:23:55.303Z,10.29
2019-03-05T08:26:26.175Z,11.03
2019-03-05T08:28:55.903Z,10.71
2019-03-05T08:31:25.474Z,11.56
2019-03-05T08:33:55.496Z,11.43
2019-03-05T08:36:25.252Z,12.19
2019-03-05T08:38:54.893Z,11.38
2019-03-05T08:41:26.242Z,11.26
2019-03-05T08:43:55.966Z,10.27
2019-03-05T08:46:25.594Z,9.79
2019-03-05T08:48:55.255Z,9.68
2019-03-05T08:51:25.117Z,9.90
2019-03-05T08:53:56.827Z,9.68
2019-03-05T08:56:26.065Z,10.05
2019-03-05T08:58:55.692Z,9.07
2019-03-05T09:01:26.710Z,8.87
2019-03-05T09:03:56.345Z,8.60
2019-03-05T09:06:26.104Z,8.21
2019-03-05T09:08:57.476Z,8.34
2019-03-05T09:11:27.034Z,8.38
2019-03-05T09:13:56.630Z,8.27
2019-03-05T09:16:26.297Z,7.77
2019-03-05T09:18:56.099Z,8.02
2019-03-05T09:21:25.853Z,7.81
2019-03-05T09:23:55.510Z,7.50
2019-03-05T09:26:25.232Z,7.65
2019-03-05T09:28:54.835Z,7.80
2019-03-05T09:31:25.431Z,8.38
2019-03-05T09:33:55.016Z,7.84
2019-03-05T09:36:25.901Z,7.16
2019-03-05T09:38:57.998Z,7.32
2019-03-05T09:41:27.607Z,6.96
2019-03-05T09:43:57.270Z,6.96
2019-03-05T09:46:26.996Z,6.74
2019-03-05T09:48:58.223Z,6.74
2019-03-05T09:51:27.943Z,6.84
2019-03-05T09:53:57.651Z,6.53
2019-03-05T09:56:28.946Z,6.71
2019-03-05T09:58:58.469Z,7.64
2019-03-05T10:01:28.325Z,8.00
2019-03-05T10:03:58.073Z,8.00
2019-03-05T10:06:27.686Z,8.56
2019-03-05T10:08:57.270Z,8.75
2019-03-05T10:11:26.842Z,9.74
2019-03-05T10:13:58.553Z,9.18
2019-03-05T10:16:31.434Z,9.52
2019-03-05T10:19:00.960Z,10.73
2019-03-05T10:21:30.483Z,10.48
2019-03-05T10:24:09.917Z,10.40
2019-03-05T10:26:32.731Z,9.73
2019-03-05T10:29:02.379Z,9.71
2019-03-05T10:31:33.291Z,9.99
2019-03-05T10:34:02.989Z,10.53
2019-03-05T10:36:34.127Z,10.35
2019-03-05T10:39:05.393Z,10.23
2019-03-05T10:41:35.073Z,10.71
2019-03-05T10:44:04.823Z,11.11
2019-03-05T10:46:35.437Z,10.79
2019-03-05T10:49:05.244Z,10.61
2019-03-05T10:51:36.199Z,11.15
2019-03-05T10:54:06.139Z,10.40
2019-03-05T10:56:37.548Z,10.32
2019-03-05T10:59:07.120Z,10.41
2019-03-05T11:01:37.248Z,10.97
2019-03-05T11:04:09.757Z,12.05
2019-03-05T11:06:39.175Z,12.26
2019-03-05T11:09:12.643Z,11.53
2019-03-05T11:11:42.195Z,12.34
2019-03-05T11:14:12.017Z,12.99
2019-03-05T11:16:41.669Z,13.23
2019-03-05T11:19:11.413Z,13.96
2019-03-05T11:21:41.095Z,13.55
2019-03-05T11:24:10.842Z,13.30
2019-03-05T11:26:40.509Z,13.36
2019-03-05T11:29:12.110Z,13.68
2019-03-05T11:31:44.058Z,13.94
2019-03-05T11:34:13.778Z,14.65
2019-03-05T11:36:43.444Z,15.19
2019-03-05T11:39:13.478Z,15.45
2019-03-05T11:41:43.209Z,16.85
2019-03-05T11:44:14.918Z,17.18
2019-03-05T11:46:44.715Z,16.72
2019-03-05T11:49:14.379Z,17.95
2019-03-05T11:51:43.906Z,19.12
2019-03-05T11:54:13.553Z,19.65
2019-03-05T11:56:43.265Z,20.01
2019-03-05T11:59:12.919Z,19.98
2019-03-05T12:01:46.435Z,20.28
2019-03-05T12:04:17.558Z,20.57
2019-03-05T12:06:47.300Z,20.47
2019-03-05T12:09:16.918Z,20.25
2019-03-05T12:11:48.625Z,20.56
2019-03-05T12:14:18.533Z,20.92
2019-03-05T12:16:48.086Z,20.95
2019-03-05T12:19:22.312Z,21.21
2019-03-05T12:21:51.994Z,21.37
2019-03-05T12:24:24.175Z,20.95
2019-03-05T12:26:52.948Z,21.24
2019-03-05T12:29:22.542Z,22.21
2019-03-05T12:31:52.457Z,21.58
2019-03-05T12:34:22.172Z,22.04
2019-03-05T12:36:51.781Z,21.94
2019-03-05T12:39:22.104Z,22.70
2019-03-05T12:41:51.797Z,22.40
2019-03-05T12:44:21.356Z,21.71
2019-03-05T12:46:53.175Z,22.48
2019-03-05T12:49:22.870Z,22.59
2019-03-05T12:51:52.496Z,22.61
2019-03-05T12:54:22.239Z,23.15
2019-03-05T12:56:51.810Z,23.74
2019-03-05T12:59:21.472Z,23.43
2019-03-05T13:01:51.106Z,23.83
2019-03-05T13:04:20.707Z,23.78
2019-03-05T13:06:52.604Z,23.34
2019-03-05T13:09:22.330Z,23.94
2019-03-05T13:11:51.975Z,23.27
2019-03-05T13:14:21.556Z,23.85
2019-03-05T13:16:51.340Z,23.64
2019-03-05T13:19:20.986Z,24.35
2019-03-05T13:21:50.296Z,24.03
2019-03-05T13:24:20.085Z,24.43
2019-03-05T13:26:49.556Z,24.79
2019-03-05T13:29:20.567Z,25.30
2019-03-05T13:31:50.483Z,25.36
2019-03-05T13:34:20.065Z,25.81
2019-03-05T13:36:50.644Z,26.09
2019-03-05T13:39:23.688Z,26.46
2019-03-05T13:41:56.971Z,27.72
2019-03-05T13:44:34.376Z,27.52
2019-03-05T13:47:05.847Z,27.98
2019-03-05T13:50:24.155Z,28.42
2019-03-05T13:53:30.862Z,28.28
2019-03-05T13:56:25.064Z,26.93
2019-03-05T13:59:33.959Z,26.92
2019-03-05T14:02:04.049Z,27.13
2019-03-05T14:04:58.901Z,28.72
2019-03-05T14:08:04.159Z,28.32
2019-03-05T14:10:33.811Z,28.24
2019-03-05T14:13:04.868Z,27.05
2019-03-05T14:15:35.146Z,27.15
2019-03-05T14:18:07.672Z,27.24
2019-03-05T14:20:39.508Z,27.22
2019-03-05T14:23:08.851Z,26.92
2019-03-05T14:25:39.613Z,28.15
2019-03-05T14:28:10.582Z,28.76
2019-03-05T14:30:41.132Z,29.20
2019-03-05T14:33:10.932Z,29.30
2019-03-05T14:35:41.038Z,29.02
2019-03-05T14:38:10.966Z,28.76
2019-03-05T14:40:40.888Z,28.81
2019-03-05T14:43:10.715Z,29.30
2019-03-05T14:45:40.546Z,29.50
2019-03-05T14:48:10.225Z,29.03
2019-03-05T14:50:42.232Z,29.61
2019-03-05T14:53:11.980Z,30.40
2019-03-05T14:55:43.022Z,30.12
2019-03-05T14:58:12.722Z,30.33
2019-03-05T15:00:42.450Z,31.28
2019-03-05T15:03:12.082Z,30.24
2019-03-05T15:05:41.844Z,30.32
2019-03-05T15:08:11.638Z,31.08
2019-03-05T15:10:42.645Z,30.54
2019-03-05T15:13:17.335Z,30.55
2019-03-05T15:15:43.960Z,30.54
2019-03-05T15:18:13.568Z,30.81
2019-03-05T15:20:43.261Z,30.64
2019-03-05T15:23:13.057Z,30.87
2019-03-05T15:25:42.777Z,30.98
2019-03-05T15:28:12.521Z,30.66
2019-03-05T15:30:42.137Z,30.99
2019-03-05T15:33:11.809Z,30.91
2019-03-05T15:35:41.533Z,30.54
2019-03-05T15:38:11.169Z,30.37
2019-03-05T15:40:42.493Z,31.44
2019-03-05T15:43:12.186Z,30.86
2019-03-05T15:45:41.847Z,30.42
2019-03-05T15:48:11.586Z,30.52
2019-03-05T15:50:41.084Z,30.72
2019-03-05T15:53:10.577Z,31.06
2019-03-05T15:55:40.227Z,30.72
2019-03-05T15:58:10.784Z,30.77
2019-03-05T16:00:41.239Z,30.66
2019-03-05T16:03:10.992Z,31.04
2019-03-05T16:05:41.111Z,30.97
2019-03-05T16:08:12.894Z,31.01
2019-03-05T16:10:43.907Z,31.43
2019-03-05T16:13:15.310Z,31.30
2019-03-05T16:15:45.818Z,31.73
2019-03-05T16:18:16.586Z,32.22
2019-03-05T16:20:46.232Z,32.77
2019-03-05T16:23:16.011Z,33.18
2019-03-05T16:25:50.212Z,33.82
2019-03-05T16:28:19.291Z,34.57
2019-03-05T16:31:12.487Z,34.67
2019-03-05T16:34:19.546Z,34.88
2019-03-05T16:37:13.994Z,35.17
2019-03-05T16:40:16.751Z,35.01
2019-03-05T16:42:58.639Z,35.78
2019-03-05T16:45:42.741Z,35.55
2019-03-05T16:48:30.022Z,36.28
2019-03-05T16:51:18.642Z,36.35
2019-03-05T16:54:05.016Z,36.36
2019-03-05T16:56:52.363Z,36.65
2019-03-05T16:59:40.113Z,37.09
2019-03-05T17:02:47.127Z,37.05
2019-03-05T17:05:36.464Z,37.42
2019-03-05T17:08:31.568Z,37.98
2019-03-05T17:11:35.115Z,37.90
2019-03-05T17:14:04.769Z,38.56
2019-03-05T17:16:37.363Z,38.26
2019-03-05T17:19:06.955Z,38.73
2019-03-05T17:21:36.745Z,39.08
2019-03-05T17:24:07.206Z,39.42
2019-03-05T17:26:37.128Z,40.00
2019-03-05T17:29:06.855Z,39.47
2019-03-05T17:31:36.567Z,39.91
2019-03-05T17:34:06.411Z,40.11
2019-03-05T17:36:38.222Z,40.16
2019-03-05T17:39:17.724Z,40.75
2019-03-05T17:41:47.345Z,40.98
2019-03-05T17:44:17.235Z,40.69
2019-03-05T17:46:47.174Z,40.69
2019-03-05T17:49:16.956Z,40.67
2019-03-05T17:51:46.776Z,40.99
2019-03-05T17:54:16.549Z,41.21
2019-03-05T17:56:46.404Z,41.38
2019-03-05T17:59:16.003Z,41.05
2019-03-05T18:01:45.741Z,41.17
2019-03-05T18:04:15.504Z,41.19
2019-03-05T18:06:47.499Z,41.54
2019-03-05T18:09:17.605Z,41.37
2019-03-05T18:11:47.321Z,42.00
2019-03-05T18:14:17.245Z,42.10
2019-03-05T18:16:46.855Z,41.71
2019-03-05T18:19:16.748Z,41.55
2019-03-05T18:21:46.357Z,41.73
2019-03-05T18:24:16.124Z,41.91
2019-03-05T18:26:45.869Z,42.14
2019-03-05T18:29:15.547Z,42.31
2019-03-05T18:31:45.276Z,42.60
2019-03-05T18:34:15.208Z,42.72
2019-03-05T18:36:45.973Z,43.02
2019-03-05T18:39:15.914Z,43.47
2019-03-05T18:41:45.613Z,43.39
2019-03-05T18:44:15.490Z,43.32
2019-03-05T18:46:45.219Z,43.63
2019-03-05T18:49:15.093Z,43.82
2019-03-05T18:51:44.931Z,43.87
2019-03-05T18:54:14.691Z,43.90
2019-03-05T18:56:44.456Z,44.32
2019-03-05T18:59:14.185Z,44.48
2019-03-05T19:01:48.880Z,44.39
2019-03-05T19:04:21.377Z,44.55
2019-03-05T19:06:51.121Z,44.71
2019-03-05T19:09:21.774Z,44.71
2019-03-05T19:11:51.542Z,44.74
2019-03-05T19:14:21.068Z,44.84
2019-03-05T19:16:50.792Z,45.07
2019-03-05T19:19:20.358Z,44.97
2019-03-05T19:21:50.001Z,45.44
2019-03-05T19:24:19.658Z,45.70
2019-03-05T19:26:49.286Z,45.91
2019-03-05T19:29:19.015Z,45.74
2019-03-05T19:31:48.592Z,45.55
2019-03-05T19:34:18.168Z,45.53
2019-03-05T19:36:47.950Z,45.85
2019-03-05T19:39:17.975Z,45.90
2019-03-05T19:41:55.805Z,46.02
2019-03-05T19:44:20.661Z,45.96
2019-03-05T19:46:50.346Z,45.99
2019-03-05T19:49:19.971Z,46.05
2019-03-05T19:51:49.934Z,45.88
2019-03-05T19:54:19.556Z,46.05
2019-03-05T19:56:49.145Z,45.64
2019-03-05T19:59:18.779Z,45.75
2019-03-05T20:01:49.971Z,46.14
2019-03-05T20:04:19.730Z,46.63
2019-03-05T20:06:49.408Z,46.54
2019-03-05T20:09:21.063Z,47.11
2019-03-05T20:11:50.813Z,47.23
2019-03-05T20:14:20.514Z,47.75
2019-03-05T20:16:50.217Z,48.40
2019-03-05T20:19:20.033Z,48.68
2019-03-05T20:21:49.734Z,48.57
2019-03-05T20:24:19.308Z,48.21
2019-03-05T20:26:49.195Z,48.41
2019-03-05T20:29:18.815Z,47.83
2019-03-05T20:31:48.506Z,48.26
2019-03-05T20:34:18.102Z,48.03
2019-03-05T20:36:48.034Z,47.79
2019-03-05T20:39:17.818Z,47.95
2019-03-05T20:41:47.645Z,47.97
2019-03-05T20:44:17.344Z,48.23
2019-03-05T20:46:46.879Z,48.28
2019-03-05T20:49:18.303Z,48.27
2019-03-05T20:51:47.881Z,48.30
2019-03-05T20:54:17.825Z,48.66
2019-03-05T20:56:47.333Z,49.12
2019-03-05T20:59:17.015Z,49.42
2019-03-05T21:01:47.593Z,50.46
2019-03-05T21:04:17.274Z,52.14
2019-03-05T21:06:47.265Z,53.46
2019-03-05T21:09:25.952Z,54.26
2019-03-05T21:11:55.833Z,53.95
2019-03-05T21:14:25.936Z,54.42
2019-03-05T21:16:55.598Z,55.56
2019-03-05T21:19:25.450Z,56.18
2019-03-05T21:21:54.943Z,59.48
2019-03-05T21:24:24.797Z,60.76
2019-03-05T21:26:54.334Z,61.70
2019-03-05T21:29:23.963Z,61.16
2019-03-05T21:31:53.552Z,63.24
2019-03-05T21:34:23.228Z,62.71
2019-03-05T21:36:52.961Z,64.77
2019-03-05T21:39:22.664Z,66.19
2019-03-05T21:41:52.301Z,66.95
2019-03-05T21:44:23.200Z,66.27
2019-03-05T21:46:52.767Z,67.67
2019-03-05T21:49:22.820Z,68.37
2019-03-05T21:51:52.500Z,68.15
2019-03-05T21:54:22.159Z,68.87
2019-03-05T21:56:51.954Z,69.09
2019-03-05T21:59:21.699Z,69.42
2019-03-05T22:01:51.281Z,69.98
2019-03-05T22:04:20.923Z,69.11
2019-03-05T22:06:50.544Z,69.56
2019-03-05T22:09:20.197Z,68.88
2019-03-05T22:11:49.858Z,70.07
2019-03-05T22:14:19.623Z,70.22
2019-03-05T22:16:49.357Z,70.01
2019-03-05T22:19:19.011Z,69.98
2019-03-05T22:21:48.649Z,71.23
2019-03-05T22:24:18.293Z,70.75
2019-03-05T22:26:48.059Z,69.93
2019-03-05T22:29:17.636Z,70.32
2019-03-05T22:31:47.408Z,70.70
2019-03-05T22:34:17.416Z,69.70
2019-03-05T22:36:47.137Z,70.70
2019-03-05T22:39:17.056Z,70.02
2019-03-05T22:41:47.683Z,69.33
2019-03-05T22:44:18.362Z,69.03
2019-03-05T22:46:47.922Z,69.05
2019-03-05T22:49:17.397Z,69.36
2019-03-05T22:51:47.152Z,69.39
2019-03-05T22:54:16.783Z,69.86
2019-03-05T22:56:46.357Z,69.53
2019-03-05T22:59:16.002Z,69.80
2019-03-05T23:01:46.101Z,68.61
2019-03-05T23:04:19.496Z,68.98
2019-03-05T23:06:50.501Z,68.82
2019-03-05T23:09:26.873Z,69.76
2019-03-05T23:11:56.494Z,70.25
2019-03-05T23:14:26.532Z,69.90
2019-03-05T23:16:56.092Z,69.50
2019-03-05T23:19:25.790Z,70.62
2019-03-05T23:21:55.559Z,70.15
2019-03-05T23:24:25.241Z,70.56
2019-03-05T23:26:54.919Z,70.43
2019-03-05T23:29:44.775Z,70.18
2019-03-05T23:32:16.187Z,70.06
2019-03-05T23:34:45.888Z,69.34
2019-03-05T23:37:15.390Z,70.05
2019-03-05T23:39:45.240Z,70.18
2019-03-05T23:42:14.908Z,69.67
2019-03-05T23:44:44.578Z,70.32
2019-03-05T23:47:14.168Z,70.25
2019-03-05T23:49:43.808Z,69.42
2019-03-05T23:52:13.504Z,69.93
2019-03-05T23:54:44.636Z,70.46
2019-03-05T23:57:14.346Z,70.14
2019-03-05T23:59:43.998Z,68.42
